Battle Mountain, Nevada
Current Conditions -  °F | °C
As of 11:56 AM on Saturday 25 Oct 2014 (Local Time) from KWMC Reporting Station
Clear Clear  
Wind Chill: 74°   Ceiling: Unl
Heat Index: 74°   Visibility: 10mi
Dew Point: 20°   Wind: 21mph
Humidity: 13%   Direction: 200°SSW
Pressure: 29.89"   Gusts: 31mph
Location:  40.64°N, 116.94°W
Report Text: KWMC 251856Z AUTO 20018G27KT 10SM CLR 23/M07 A2989 RMK AO2 PK WND 19033/1836 SLP089 T02331067
Loading
Personal Weather Stations






























Interactive Weather Map
Tropical Storm Tracking
New forecast layout! Learn more

10-Day Weather Forecast

Advertisements
Track Severe Weather on mobile